Time;durP1;ratioP1;P1;durP2;ratioP2;P2;SDS_P1;SDS_P2;PMS_P1;PMS_P2;Temp;Humidity;BMP_temperature;BMP_pressure;BME280_temperature;BME280_humidity;BME280_pressure;Samples;Min_cycle;Max_cycle;Signal;HPM_P1;HPM_P2
2021/03/01 00:01:16;;;;;;;25.67;11.07;;;4.50;99.90;;;;;;5003166;28;20548;-56
2021/03/01 00:03:42;;;;;;;26.83;10.70;;;4.50;99.90;;;;;;4999338;28;20203;-50
2021/03/01 00:06:07;;;;;;;23.63;10.17;;;4.50;99.90;;;;;;5002815;28;20180;-53
2021/03/01 00:08:33;;;;;;;26.77;11.00;;;4.60;99.90;;;;;;4996449;28;20247;-51
2021/03/01 00:10:58;;;;;;;25.50;10.90;;;4.60;99.90;;;;;;4988960;28;20505;-57
2021/03/01 00:13:25;;;;;;;23.50;9.67;;;4.50;99.90;;;;;;4994997;28;20197;-57
2021/03/01 00:15:52;;;;;;;26.93;11.37;;;4.50;99.90;;;;;;4999279;28;20223;-56
2021/03/01 00:18:18;;;;;;;28.80;10.07;;;4.50;99.90;;;;;;5003188;28;20559;-51
2021/03/01 00:20:43;;;;;;;26.33;9.90;;;4.60;99.90;;;;;;4998394;28;20185;-55
2021/03/01 00:23:10;;;;;;;20.03;10.53;;;4.50;99.90;;;;;;4995516;28;20231;-48
2021/03/01 00:25:38;;;;;;;29.53;9.33;;;4.50;99.90;;;;;;4992877;28;20200;-56
2021/03/01 00:28:10;;;;;;;24.77;10.00;;;4.60;99.90;;;;;;4995275;28;20469;-48
2021/03/01 00:30:37;;;;;;;25.37;11.00;;;4.50;99.90;;;;;;4981004;28;20188;-56
2021/03/01 00:33:02;;;;;;;23.97;11.53;;;4.50;99.90;;;;;;4981811;28;20880;-51
2021/03/01 00:35:28;;;;;;;22.77;10.50;;;4.50;99.90;;;;;;4982252;28;20194;-55
2021/03/01 00:37:53;;;;;;;40.27;11.30;;;4.50;99.90;;;;;;4979944;28;20170;-53
2021/03/01 00:40:19;;;;;;;29.30;10.83;;;4.50;99.90;;;;;;4993204;28;20748;-49
2021/03/01 00:42:45;;;;;;;25.67;10.83;;;4.50;99.90;;;;;;4986824;28;20724;-49
2021/03/01 00:45:11;;;;;;;27.80;10.30;;;4.60;99.90;;;;;;4994540;28;20582;-58
2021/03/01 00:47:37;;;;;;;29.43;10.90;;;4.60;99.90;;;;;;5000237;28;20629;-51
2021/03/01 00:50:07;;;;;;;31.93;11.40;;;4.60;99.90;;;;;;5001434;28;20184;-56
2021/03/01 00:52:32;;;;;;;26.60;11.77;;;4.60;99.90;;;;;;4997825;28;20311;-54
2021/03/01 00:54:58;;;;;;;36.77;11.07;;;4.60;99.90;;;;;;4979993;28;20784;-56
2021/03/01 00:57:24;;;;;;;28.07;11.13;;;4.60;99.90;;;;;;5003549;28;20184;-54
2021/03/01 00:59:49;;;;;;;28.20;10.87;;;4.60;99.90;;;;;;4981402;28;20276;-57
2021/03/01 01:02:16;;;;;;;27.87;10.93;;;4.60;99.90;;;;;;5018824;28;20275;-57
2021/03/01 01:04:53;;;;;;;23.77;10.53;;;4.60;99.90;;;;;;5001369;28;20650;-51
2021/03/01 01:07:19;;;;;;;26.13;11.23;;;4.60;99.90;;;;;;5004713;28;20177;-51
2021/03/01 01:09:45;;;;;;;28.33;11.37;;;4.60;99.90;;;;;;4996897;28;20417;-51
2021/03/01 01:12:10;;;;;;;37.67;11.10;;;4.70;99.90;;;;;;5005871;28;20208;-49
2021/03/01 01:14:36;;;;;;;22.53;10.60;;;4.60;99.90;;;;;;4991163;28;20207;-56
2021/03/01 01:17:03;;;;;;;19.07;9.47;;;4.60;99.90;;;;;;4996491;28;20181;-56
2021/03/01 01:19:29;;;;;;;27.50;9.93;;;4.60;99.90;;;;;;5004715;28;20193;-55
2021/03/01 01:21:54;;;;;;;22.87;9.30;;;4.60;99.90;;;;;;5002721;28;20181;-57
2021/03/01 01:24:20;;;;;;;24.63;10.37;;;4.60;99.90;;;;;;4988054;28;20508;-49
2021/03/01 01:26:45;;;;;;;31.53;10.27;;;4.60;99.90;;;;;;4987201;28;20554;-49
2021/03/01 01:29:11;;;;;;;22.47;9.63;;;4.60;99.90;;;;;;5005451;28;20219;-52
2021/03/01 01:31:36;;;;;;;17.17;9.40;;;4.60;99.90;;;;;;4986657;28;20299;-54
2021/03/01 01:34:02;;;;;;;21.13;10.33;;;4.60;99.90;;;;;;4999499;28;20401;-49
2021/03/01 01:36:27;;;;;;;23.43;9.30;;;4.60;99.90;;;;;;5004779;28;20181;-52
2021/03/01 01:38:53;;;;;;;23.03;9.27;;;4.60;99.90;;;;;;5002097;28;20476;-57
2021/03/01 01:41:19;;;;;;;19.93;9.53;;;4.60;99.90;;;;;;5001092;28;20192;-57
2021/03/01 01:43:46;;;;;;;17.33;8.67;;;4.60;99.90;;;;;;5001155;28;20254;-53
2021/03/01 01:46:11;;;;;;;21.43;8.67;;;4.50;99.90;;;;;;4993446;28;20572;-55
2021/03/01 01:48:37;;;;;;;20.63;9.00;;;4.50;99.90;;;;;;5002244;28;20239;-55
2021/03/01 01:51:03;;;;;;;21.13;9.90;;;4.50;99.90;;;;;;5003580;28;20371;-57
2021/03/01 01:53:28;;;;;;;18.20;8.97;;;4.50;99.90;;;;;;4993546;28;20271;-52
2021/03/01 01:55:55;;;;;;;19.57;8.60;;;4.50;99.90;;;;;;4982508;28;20223;-57
2021/03/01 01:58:20;;;;;;;18.27;8.33;;;4.50;99.90;;;;;;4985351;28;20264;-55
2021/03/01 02:00:47;;;;;;;22.10;8.77;;;4.60;99.90;;;;;;4992613;28;20185;-57
2021/03/01 02:03:42;;;;;;;19.77;8.83;;;4.60;99.90;;;;;;4992680;28;20185;-52
2021/03/01 02:06:30;;;;;;;20.40;8.67;;;4.60;99.90;;;;;;5002258;28;20188;-50
2021/03/01 02:09:22;;;;;;;19.50;8.83;;;4.50;99.90;;;;;;5003820;28;20239;-58
2021/03/01 02:12:11;;;;;;;19.57;8.93;;;4.50;99.90;;;;;;5004388;28;20704;-54
2021/03/01 02:14:49;;;;;;;21.00;8.30;;;4.40;99.90;;;;;;5004511;28;20694;-53
2021/03/01 02:17:15;;;;;;;21.53;9.27;;;4.40;99.90;;;;;;4987919;28;20582;-52
2021/03/01 02:19:41;;;;;;;16.70;8.13;;;4.40;99.90;;;;;;4997588;28;20180;-53
2021/03/01 02:22:06;;;;;;;19.03;9.27;;;4.40;99.90;;;;;;5002132;28;20523;-52
2021/03/01 02:24:38;;;;;;;21.07;9.00;;;4.40;99.90;;;;;;5003640;28;20204;-47
2021/03/01 02:27:05;;;;;;;21.40;9.23;;;4.40;99.90;;;;;;5001134;28;20528;-55
2021/03/01 02:29:32;;;;;;;21.20;9.47;;;4.40;99.90;;;;;;5000191;28;20376;-49
2021/03/01 02:32:01;;;;;;;14.77;8.53;;;4.40;99.90;;;;;;4991724;28;20247;-56
2021/03/01 02:34:31;;;;;;;17.57;8.40;;;4.40;99.90;;;;;;4993872;28;20276;-54
2021/03/01 02:36:59;;;;;;;18.57;8.77;;;4.40;99.90;;;;;;5003347;28;20239;-57
2021/03/01 02:39:29;;;;;;;15.90;7.73;;;4.40;99.90;;;;;;5001658;28;20216;-50
2021/03/01 02:41:55;;;;;;;21.23;8.97;;;4.40;99.90;;;;;;5003898;28;20661;-56
2021/03/01 02:44:21;;;;;;;15.80;7.70;;;4.40;99.90;;;;;;4989863;28;20822;-54
2021/03/01 02:46:48;;;;;;;14.93;7.73;;;4.40;99.90;;;;;;4992564;28;20197;-55
2021/03/01 02:49:15;;;;;;;17.13;8.17;;;4.40;99.90;;;;;;4991213;28;20404;-57
2021/03/01 02:51:42;;;;;;;17.07;8.17;;;4.40;99.90;;;;;;5004288;28;20193;-57
2021/03/01 02:54:09;;;;;;;13.17;7.53;;;4.40;99.90;;;;;;5000816;28;20572;-53
2021/03/01 02:56:37;;;;;;;17.20;8.43;;;4.40;99.90;;;;;;5003846;28;20675;-51
2021/03/01 02:59:05;;;;;;;13.17;7.07;;;4.40;99.90;;;;;;4997134;28;20192;-56
2021/03/01 03:01:31;;;;;;;16.50;7.87;;;4.40;99.90;;;;;;4990643;28;20640;-57
2021/03/01 03:03:58;;;;;;;15.00;6.90;;;4.40;99.90;;;;;;4996552;28;20170;-53
2021/03/01 03:06:27;;;;;;;17.47;7.97;;;4.30;99.90;;;;;;4999819;28;20511;-55
2021/03/01 03:08:54;;;;;;;19.03;7.97;;;4.30;99.90;;;;;;5004275;28;20181;-53
2021/03/01 03:11:23;;;;;;;17.97;7.97;;;4.30;99.90;;;;;;5000221;28;20814;-55
2021/03/01 03:13:50;;;;;;;20.23;8.87;;;4.40;99.90;;;;;;4990586;28;20221;-51
2021/03/01 03:16:17;;;;;;;14.03;7.80;;;4.30;99.90;;;;;;4993615;28;20835;-48
2021/03/01 03:18:44;;;;;;;19.07;7.53;;;4.30;99.90;;;;;;4990755;28;20739;-48
2021/03/01 03:21:12;;;;;;;15.80;7.80;;;4.30;99.90;;;;;;4991294;28;20183;-54
2021/03/01 03:23:37;;;;;;;12.10;5.67;;;4.30;99.90;;;;;;5003800;28;20191;-51
2021/03/01 03:26:03;;;;;;;10.47;6.70;;;4.30;99.90;;;;;;5001234;28;20291;-56
2021/03/01 03:28:28;;;;;;;16.33;6.83;;;4.20;99.90;;;;;;5001553;28;20527;-53
2021/03/01 03:30:54;;;;;;;10.07;6.13;;;4.20;99.90;;;;;;4998330;28;20217;-56
2021/03/01 03:33:20;;;;;;;12.13;6.67;;;4.20;99.90;;;;;;4987476;28;20268;-50
2021/03/01 03:35:45;;;;;;;11.33;6.40;;;4.20;99.90;;;;;;4995284;28;20203;-52
2021/03/01 03:38:28;;;;;;;11.00;6.50;;;4.20;99.90;;;;;;4999509;28;20173;-55
2021/03/01 03:40:58;;;;;;;12.60;6.60;;;4.20;99.90;;;;;;5002904;28;20181;-55
2021/03/01 03:43:24;;;;;;;12.27;6.53;;;4.20;99.90;;;;;;4989770;28;20493;-55
2021/03/01 03:45:53;;;;;;;14.00;6.77;;;4.20;99.90;;;;;;4983464;28;20221;-51
2021/03/01 03:48:21;;;;;;;12.13;6.47;;;4.20;99.90;;;;;;4981588;28;20331;-53
2021/03/01 03:50:54;;;;;;;13.43;6.27;;;4.20;99.90;;;;;;4997913;28;20663;-51
2021/03/01 03:53:26;;;;;;;13.13;5.80;;;4.20;99.90;;;;;;4997129;28;20223;-50
2021/03/01 03:55:54;;;;;;;10.57;5.70;;;4.20;99.90;;;;;;5003191;28;20247;-51
2021/03/01 03:58:25;;;;;;;9.50;5.47;;;4.10;99.90;;;;;;4999441;28;20374;-53
2021/03/01 04:00:53;;;;;;;10.07;4.97;;;4.10;99.90;;;;;;5003062;28;20195;-51
2021/03/01 04:03:21;;;;;;;10.57;5.50;;;4.10;99.90;;;;;;4982818;28;24447;-54
2021/03/01 04:05:48;;;;;;;8.60;4.73;;;4.10;99.90;;;;;;4998376;28;20667;-52
2021/03/01 04:08:14;;;;;;;7.80;5.50;;;4.10;99.90;;;;;;4995949;28;20200;-48
2021/03/01 04:10:45;;;;;;;7.67;5.63;;;4.10;99.90;;;;;;5002343;28;20664;-50
2021/03/01 04:13:13;;;;;;;11.03;5.77;;;4.10;99.90;;;;;;4990469;28;20201;-55
2021/03/01 04:15:45;;;;;;;9.03;5.33;;;4.20;99.90;;;;;;4983160;28;20289;-52
2021/03/01 04:18:21;;;;;;;12.03;5.87;;;4.20;99.90;;;;;;4971342;28;20268;-56
2021/03/01 04:20:47;;;;;;;8.10;5.10;;;4.20;99.90;;;;;;4994644;28;20180;-56
2021/03/01 04:23:15;;;;;;;18.17;6.13;;;4.20;99.90;;;;;;4981759;28;20185;-55
2021/03/01 04:25:42;;;;;;;12.50;5.80;;;4.20;99.90;;;;;;4983332;28;20209;-48
2021/03/01 04:28:09;;;;;;;12.53;5.43;;;4.10;99.90;;;;;;4980010;28;20200;-55
2021/03/01 04:30:35;;;;;;;11.33;6.37;;;4.10;99.90;;;;;;4983047;28;20669;-57
2021/03/01 04:33:01;;;;;;;11.77;5.43;;;4.20;99.90;;;;;;4981647;28;20221;-53
2021/03/01 04:35:28;;;;;;;10.53;4.90;;;4.10;99.90;;;;;;4995398;28;20437;-57
2021/03/01 04:37:53;;;;;;;9.77;5.97;;;4.10;99.90;;;;;;5000848;28;20220;-50
2021/03/01 04:40:19;;;;;;;11.03;5.67;;;4.20;99.90;;;;;;5002381;28;20303;-54
2021/03/01 04:42:47;;;;;;;12.17;5.90;;;4.20;99.90;;;;;;5001741;28;20277;-57
2021/03/01 04:45:16;;;;;;;12.50;6.20;;;4.20;99.90;;;;;;4982496;28;20561;-53
2021/03/01 04:47:43;;;;;;;12.33;6.47;;;4.20;99.90;;;;;;4986739;28;20189;-57
2021/03/01 04:50:12;;;;;;;16.30;7.07;;;4.30;99.90;;;;;;4989559;28;20184;-56
2021/03/01 04:52:37;;;;;;;19.23;5.70;;;4.30;99.90;;;;;;4998767;28;20777;-54
2021/03/01 04:55:05;;;;;;;12.37;6.20;;;4.20;99.90;;;;;;5004281;28;20204;-53
2021/03/01 04:57:31;;;;;;;11.97;5.87;;;4.20;99.90;;;;;;5004623;28;20179;-52
2021/03/01 04:59:59;;;;;;;18.73;6.70;;;4.20;99.90;;;;;;5005059;28;20177;-55
2021/03/01 05:02:26;;;;;;;12.60;6.20;;;4.20;99.90;;;;;;5003339;28;20247;-52
2021/03/01 05:04:52;;;;;;;12.33;4.90;;;4.10;99.90;;;;;;4993622;28;20335;-51
2021/03/01 05:07:19;;;;;;;14.00;6.43;;;4.10;99.90;;;;;;4993656;28;20682;-50
2021/03/01 05:09:45;;;;;;;13.33;6.53;;;4.10;99.90;;;;;;5005831;28;20272;-51
2021/03/01 05:12:11;;;;;;;14.73;6.57;;;4.00;99.90;;;;;;5001680;28;20258;-57
2021/03/01 05:14:36;;;;;;;11.20;6.33;;;4.00;99.90;;;;;;4986099;28;20673;-51
2021/03/01 05:17:02;;;;;;;12.07;6.10;;;4.00;99.90;;;;;;4984609;28;20410;-54
2021/03/01 05:19:30;;;;;;;9.77;6.20;;;4.00;99.90;;;;;;4974952;28;20287;-56
2021/03/01 05:21:56;;;;;;;13.80;5.87;;;4.00;99.90;;;;;;4993848;28;20224;-57
2021/03/01 05:24:21;;;;;;;13.73;6.00;;;4.00;99.90;;;;;;5000485;28;20514;-56
2021/03/01 05:26:47;;;;;;;10.47;5.93;;;4.00;99.90;;;;;;4999159;28;20185;-52
2021/03/01 05:29:12;;;;;;;11.10;5.67;;;4.00;99.90;;;;;;4990104;28;20184;-56
2021/03/01 05:31:38;;;;;;;9.63;5.27;;;4.00;99.90;;;;;;5001623;28;20239;-51
2021/03/01 05:34:04;;;;;;;9.90;5.73;;;4.00;99.90;;;;;;4996256;28;20224;-56
2021/03/01 05:36:29;;;;;;;16.47;5.73;;;4.00;99.90;;;;;;4977704;28;20504;-56
2021/03/01 05:38:55;;;;;;;13.00;6.20;;;4.00;99.90;;;;;;4992832;28;20185;-49
2021/03/01 05:41:25;;;;;;;9.60;5.43;;;3.90;99.90;;;;;;4995733;28;20177;-51
2021/03/01 05:43:52;;;;;;;11.27;6.00;;;3.90;99.90;;;;;;4992210;28;20407;-50
2021/03/01 05:46:18;;;;;;;11.07;5.47;;;3.90;99.90;;;;;;5002792;28;20196;-53
2021/03/01 05:48:48;;;;;;;10.13;5.13;;;4.00;99.90;;;;;;4990393;28;20223;-48
2021/03/01 05:51:15;;;;;;;12.93;5.63;;;3.90;99.90;;;;;;4979110;28;21115;-51
2021/03/01 05:53:43;;;;;;;9.27;5.87;;;3.90;99.90;;;;;;4997091;28;20208;-49
2021/03/01 05:56:10;;;;;;;12.00;5.97;;;3.80;99.90;;;;;;4993517;28;20385;-53
2021/03/01 05:58:36;;;;;;;12.60;6.33;;;3.80;99.90;;;;;;4996825;28;20243;-52
2021/03/01 06:01:04;;;;;;;10.87;5.37;;;3.80;99.90;;;;;;4999890;28;20465;-53
2021/03/01 06:03:33;;;;;;;10.13;5.70;;;3.80;99.90;;;;;;4999668;28;20185;-48
2021/03/01 06:06:00;;;;;;;13.23;5.70;;;3.80;99.90;;;;;;4991275;28;20220;-51
2021/03/01 06:08:26;;;;;;;11.23;5.53;;;3.80;99.90;;;;;;4987872;28;20196;-58
2021/03/01 06:10:59;;;;;;;11.50;5.97;;;3.80;99.90;;;;;;4998157;28;20185;-57
2021/03/01 06:13:25;;;;;;;11.60;5.50;;;3.80;99.90;;;;;;5003532;28;20226;-53
2021/03/01 06:15:53;;;;;;;11.87;6.40;;;3.80;99.90;;;;;;4996470;28;20241;-56
2021/03/01 06:18:19;;;;;;;8.93;5.30;;;3.80;99.90;;;;;;4997190;28;20405;-51
2021/03/01 06:20:45;;;;;;;14.67;6.57;;;3.80;99.90;;;;;;5001704;28;20172;-53
2021/03/01 06:23:10;;;;;;;8.90;5.27;;;3.80;99.90;;;;;;4979465;28;20974;-56
2021/03/01 06:25:36;;;;;;;11.33;6.20;;;3.80;99.90;;;;;;5000654;28;20231;-55
2021/03/01 06:28:06;;;;;;;12.77;6.73;;;3.80;99.90;;;;;;4983109;28;20842;-56
2021/03/01 06:30:34;;;;;;;13.67;6.70;;;3.80;99.90;;;;;;4992142;28;20195;-54
2021/03/01 06:33:08;;;;;;;13.03;7.17;;;3.70;99.90;;;;;;4996304;28;20704;-52
2021/03/01 06:35:54;;;;;;;11.73;6.67;;;3.70;99.90;;;;;;4985734;28;20220;-55
2021/03/01 06:38:27;;;;;;;12.83;7.20;;;3.70;99.90;;;;;;4997209;28;20809;-55
2021/03/01 06:41:13;;;;;;;11.20;6.43;;;3.70;99.90;;;;;;4988776;28;20192;-52
2021/03/01 06:44:00;;;;;;;12.17;6.37;;;3.60;99.90;;;;;;4996147;28;20653;-51
2021/03/01 06:46:34;;;;;;;10.93;5.97;;;3.60;99.90;;;;;;4996312;28;20288;-55
2021/03/01 06:49:13;;;;;;;11.60;6.57;;;3.60;99.90;;;;;;4994066;28;20177;-53
2021/03/01 06:51:39;;;;;;;13.33;6.00;;;3.60;99.90;;;;;;4991331;28;20193;-51
2021/03/01 06:54:05;;;;;;;14.33;5.80;;;3.60;99.90;;;;;;4998705;28;20208;-54
2021/03/01 06:56:38;;;;;;;13.40;5.83;;;3.50;99.90;;;;;;4986997;28;20193;-52
2021/03/01 06:59:14;;;;;;;21.00;7.03;;;3.50;99.90;;;;;;4985010;28;20484;-51
2021/03/01 07:01:45;;;;;;;13.37;6.30;;;3.50;99.90;;;;;;4994110;28;20560;-54
2021/03/01 07:04:18;;;;;;;8.77;5.57;;;3.50;99.90;;;;;;4993302;28;20837;-52
2021/03/01 07:06:44;;;;;;;10.13;5.47;;;3.60;99.90;;;;;;4994896;28;20663;-53
2021/03/01 07:09:15;;;;;;;8.13;4.57;;;3.60;99.90;;;;;;5000565;28;20348;-52
2021/03/01 07:11:41;;;;;;;11.93;6.50;;;3.50;99.90;;;;;;4988306;28;20540;-54
2021/03/01 07:14:15;;;;;;;12.83;5.93;;;3.50;99.90;;;;;;4988698;28;20205;-51
2021/03/01 07:16:46;;;;;;;11.50;5.57;;;3.60;99.90;;;;;;4992780;28;20218;-54
2021/03/01 07:19:16;;;;;;;11.73;5.97;;;3.60;99.90;;;;;;4993133;28;20923;-57
2021/03/01 07:21:44;;;;;;;15.33;6.93;;;3.60;99.90;;;;;;4995356;28;20188;-56
2021/03/01 07:24:11;;;;;;;14.50;6.17;;;3.50;99.90;;;;;;5004803;28;20596;-51
2021/03/01 07:26:37;;;;;;;17.53;7.30;;;3.50;99.90;;;;;;4979837;28;20195;-56
2021/03/01 07:29:12;;;;;;;15.97;6.97;;;3.50;99.90;;;;;;4991867;28;20181;-54
2021/03/01 07:31:41;;;;;;;16.00;7.67;;;3.50;99.90;;;;;;4998566;28;20861;-57
2021/03/01 07:34:09;;;;;;;14.67;6.53;;;3.60;99.90;;;;;;5001155;28;20250;-55
2021/03/01 07:36:35;;;;;;;16.40;7.30;;;3.60;99.90;;;;;;4985238;28;20312;-57
2021/03/01 07:39:04;;;;;;;21.40;8.17;;;3.60;99.90;;;;;;4995287;28;20200;-54
2021/03/01 07:41:30;;;;;;;17.87;7.47;;;3.70;99.90;;;;;;4983005;28;20322;-56
2021/03/01 07:43:57;;;;;;;16.17;7.07;;;3.70;99.90;;;;;;4995373;28;20181;-54
2021/03/01 07:46:27;;;;;;;18.13;7.63;;;3.70;99.90;;;;;;4989019;28;20267;-57
2021/03/01 07:48:54;;;;;;;18.77;7.80;;;3.80;99.90;;;;;;4986505;28;20185;-56
2021/03/01 07:51:43;;;;;;;18.60;8.47;;;3.80;99.90;;;;;;4989594;28;20649;-52
2021/03/01 07:54:10;;;;;;;19.07;7.70;;;3.90;99.90;;;;;;4985192;28;20497;-53
2021/03/01 07:56:38;;;;;;;16.47;7.63;;;3.80;99.90;;;;;;4983780;28;20189;-56
2021/03/01 07:59:06;;;;;;;13.27;6.17;;;3.90;99.90;;;;;;4985993;28;20189;-50
2021/03/01 08:01:32;;;;;;;13.40;7.20;;;3.90;99.90;;;;;;4999536;28;20264;-50
2021/03/01 08:03:58;;;;;;;14.73;6.57;;;3.80;99.90;;;;;;4988975;28;20416;-56
2021/03/01 08:06:25;;;;;;;15.20;6.90;;;3.80;99.90;;;;;;4997125;28;20199;-55
2021/03/01 08:08:53;;;;;;;16.07;6.97;;;3.80;99.90;;;;;;4987991;28;20542;-52
2021/03/01 08:11:48;;;;;;;13.27;6.90;;;3.80;99.90;;;;;;5001616;28;20188;-56
2021/03/01 08:14:48;;;;;;;13.33;6.67;;;3.80;99.90;;;;;;4982752;28;20637;-57
2021/03/01 08:17:26;;;;;;;14.10;6.40;;;3.80;99.90;;;;;;4996787;28;20764;-56
2021/03/01 08:19:52;;;;;;;10.70;6.50;;;3.90;99.90;;;;;;4998826;28;20173;-49
2021/03/01 08:22:18;;;;;;;15.70;7.03;;;3.80;99.90;;;;;;4995966;28;20675;-56
2021/03/01 08:24:51;;;;;;;11.83;6.27;;;3.90;99.90;;;;;;4986832;28;20349;-50
2021/03/01 08:27:26;;;;;;;11.90;6.40;;;3.90;99.90;;;;;;4989910;28;20223;-53
2021/03/01 08:30:29;;;;;;;15.77;6.90;;;3.90;99.90;;;;;;4985429;28;20635;-57
2021/03/01 08:33:10;;;;;;;12.57;6.27;;;3.90;99.90;;;;;;5002445;28;20284;-56
2021/03/01 08:35:49;;;;;;;15.20;6.53;;;3.90;99.90;;;;;;4990751;28;20209;-54
2021/03/01 08:38:18;;;;;;;11.93;5.50;;;3.90;99.90;;;;;;4984419;28;20280;-53
2021/03/01 08:40:56;;;;;;;12.40;5.73;;;4.00;99.90;;;;;;4991175;28;20361;-55
2021/03/01 08:43:36;;;;;;;9.83;5.90;;;4.10;99.90;;;;;;4987351;28;20192;-55
2021/03/01 08:46:03;;;;;;;11.30;5.50;;;4.00;99.90;;;;;;4991932;28;20533;-57
2021/03/01 08:48:29;;;;;;;10.57;6.13;;;3.90;99.90;;;;;;5001338;28;20234;-55
2021/03/01 08:50:55;;;;;;;12.00;5.47;;;3.90;99.90;;;;;;4987961;28;20694;-52
2021/03/01 08:53:24;;;;;;;10.37;5.53;;;4.00;99.90;;;;;;4995708;28;20221;-55
2021/03/01 08:55:50;;;;;;;9.60;5.70;;;3.90;99.90;;;;;;4988228;28;20209;-54
2021/03/01 08:58:18;;;;;;;12.77;7.17;;;3.90;99.90;;;;;;4985234;28;20224;-55
2021/03/01 09:00:51;;;;;;;16.00;7.30;;;4.00;99.90;;;;;;4977365;28;20902;-48
2021/03/01 09:03:29;;;;;;;11.13;5.80;;;4.10;99.90;;;;;;4991986;28;20642;-48
2021/03/01 09:06:03;;;;;;;13.10;6.53;;;4.10;99.90;;;;;;4981661;28;22697;-48
2021/03/01 09:08:36;;;;;;;11.43;6.27;;;4.10;99.90;;;;;;4988027;28;20188;-54
2021/03/01 09:11:05;;;;;;;10.97;6.40;;;4.10;99.90;;;;;;4992139;28;20188;-50
2021/03/01 09:13:34;;;;;;;16.77;6.20;;;4.10;99.90;;;;;;4980739;28;20213;-55
2021/03/01 09:16:08;;;;;;;11.30;6.83;;;4.20;99.90;;;;;;4990817;28;20211;-54
2021/03/01 09:18:34;;;;;;;14.13;7.00;;;4.30;99.90;;;;;;4997269;28;20188;-55
2021/03/01 09:21:00;;;;;;;14.20;7.20;;;4.40;99.90;;;;;;4979054;28;20181;-54
2021/03/01 09:23:49;;;;;;;14.97;7.03;;;4.40;99.90;;;;;;4993114;28;20244;-57
2021/03/01 09:26:22;;;;;;;11.97;6.60;;;4.40;99.90;;;;;;4996322;28;20243;-53
2021/03/01 09:28:50;;;;;;;12.30;6.43;;;4.40;99.90;;;;;;4978256;28;20315;-52
2021/03/01 09:31:16;;;;;;;14.33;7.00;;;4.30;99.90;;;;;;5002362;28;20656;-57
2021/03/01 09:33:45;;;;;;;12.57;6.63;;;4.40;99.90;;;;;;4986311;28;20643;-56
2021/03/01 09:36:10;;;;;;;13.63;7.20;;;4.40;99.90;;;;;;4988068;28;20181;-55
2021/03/01 09:38:38;;;;;;;13.37;7.30;;;4.50;99.90;;;;;;4975237;28;20565;-56
2021/03/01 09:41:14;;;;;;;16.43;7.93;;;4.60;99.90;;;;;;5002734;28;20196;-52
2021/03/01 09:43:42;;;;;;;13.50;7.13;;;4.60;99.90;;;;;;4970710;28;20375;-50
2021/03/01 09:46:08;;;;;;;12.77;6.53;;;4.70;99.90;;;;;;5005231;28;20211;-49
2021/03/01 09:48:52;;;;;;;10.30;6.27;;;4.70;99.90;;;;;;4981465;28;20188;-56
2021/03/01 09:51:19;;;;;;;13.97;6.50;;;4.80;99.90;;;;;;4990001;28;20608;-53
2021/03/01 09:53:45;;;;;;;14.23;7.17;;;4.80;99.90;;;;;;4985292;28;20675;-55
2021/03/01 09:56:11;;;;;;;14.33;6.57;;;4.80;99.90;;;;;;4982366;28;20188;-49
2021/03/01 09:58:41;;;;;;;12.67;7.27;;;4.80;99.90;;;;;;4988676;28;20570;-56
2021/03/01 10:01:08;;;;;;;15.73;7.00;;;4.80;99.90;;;;;;4984436;28;20549;-49
2021/03/01 10:03:36;;;;;;;17.70;8.03;;;4.70;99.90;;;;;;4979469;28;20180;-54
2021/03/01 10:06:01;;;;;;;12.67;7.27;;;4.70;99.90;;;;;;4993044;28;20566;-54
2021/03/01 10:08:27;;;;;;;12.17;6.80;;;4.70;99.90;;;;;;4986568;28;20200;-50
2021/03/01 10:10:53;;;;;;;18.90;7.30;;;4.80;99.90;;;;;;4992714;28;20272;-52
2021/03/01 10:13:32;;;;;;;14.47;7.30;;;4.80;99.90;;;;;;4983794;28;20560;-51
2021/03/01 10:15:58;;;;;;;11.67;6.90;;;4.80;99.90;;;;;;4981391;28;20283;-52
2021/03/01 10:18:28;;;;;;;16.40;6.63;;;4.80;99.90;;;;;;4992508;28;20177;-51
2021/03/01 10:21:00;;;;;;;13.90;7.10;;;4.80;99.90;;;;;;4997477;28;20374;-56
2021/03/01 10:23:34;;;;;;;16.80;7.13;;;4.90;99.90;;;;;;4988145;28;20193;-58
2021/03/01 10:26:16;;;;;;;14.07;7.27;;;4.90;99.90;;;;;;4997506;28;20193;-49
2021/03/01 10:29:03;;;;;;;13.30;7.00;;;4.90;99.90;;;;;;4981392;28;20469;-53
2021/03/01 10:31:37;;;;;;;15.83;6.30;;;4.90;99.90;;;;;;4977547;28;20184;-55
2021/03/01 10:34:05;;;;;;;15.07;6.50;;;5.00;99.90;;;;;;4987592;28;20212;-50
2021/03/01 10:36:33;;;;;;;12.40;6.50;;;5.10;99.90;;;;;;5000853;28;20617;-54
2021/03/01 10:39:19;;;;;;;13.60;6.60;;;5.30;99.90;;;;;;4988221;28;20181;-52
2021/03/01 10:41:47;;;;;;;15.90;6.50;;;5.30;99.90;;;;;;4993967;28;20290;-56
2021/03/01 10:44:14;;;;;;;11.23;6.83;;;5.40;99.90;;;;;;4990657;28;20216;-57
2021/03/01 10:46:47;;;;;;;9.97;6.47;;;5.50;99.90;;;;;;4994466;28;20575;-51
2021/03/01 10:49:23;;;;;;;15.63;7.93;;;5.50;99.90;;;;;;4984225;28;20189;-54
2021/03/01 10:51:49;;;;;;;13.53;6.67;;;5.60;99.90;;;;;;4987548;28;20526;-52
2021/03/01 10:54:16;;;;;;;13.70;6.53;;;5.70;99.90;;;;;;5000494;28;20212;-53
2021/03/01 10:56:41;;;;;;;12.93;6.47;;;5.80;99.90;;;;;;4979470;28;20431;-52
2021/03/01 10:59:07;;;;;;;14.80;6.60;;;5.90;99.90;;;;;;4996162;28;20852;-50
2021/03/01 11:01:37;;;;;;;11.70;6.27;;;5.90;99.90;;;;;;4993456;28;20192;-50
2021/03/01 11:04:04;;;;;;;12.77;6.10;;;5.90;99.90;;;;;;4971993;28;20209;-54
2021/03/01 11:06:30;;;;;;;10.73;6.10;;;6.00;99.90;;;;;;4996040;28;20453;-49
2021/03/01 11:08:55;;;;;;;15.13;7.33;;;6.10;99.90;;;;;;4996305;28;20606;-52
2021/03/01 11:11:21;;;;;;;10.20;5.80;;;6.10;99.90;;;;;;4992576;28;20188;-53
2021/03/01 11:13:47;;;;;;;13.17;6.43;;;6.10;99.90;;;;;;4998221;28;20682;-51
2021/03/01 11:16:13;;;;;;;12.97;6.20;;;6.10;99.90;;;;;;4988551;28;20240;-50
2021/03/01 11:18:39;;;;;;;11.07;6.37;;;6.10;99.90;;;;;;4999620;28;20529;-51
2021/03/01 11:21:04;;;;;;;11.73;6.30;;;6.10;99.90;;;;;;4982674;28;20193;-50
2021/03/01 11:23:30;;;;;;;11.77;6.60;;;6.20;99.90;;;;;;4983596;28;20276;-55
2021/03/01 11:25:56;;;;;;;12.07;6.57;;;6.10;99.90;;;;;;4993673;28;20597;-50
2021/03/01 11:28:21;;;;;;;15.13;7.60;;;6.10;99.90;;;;;;4995344;28;20200;-54
2021/03/01 11:30:47;;;;;;;9.83;6.07;;;6.10;99.90;;;;;;4998181;28;20187;-50
2021/03/01 11:33:12;;;;;;;10.17;6.17;;;6.20;99.90;;;;;;4995240;28;20290;-50
2021/03/01 11:35:38;;;;;;;12.73;7.17;;;6.20;99.90;;;;;;4985827;28;20622;-48
2021/03/01 11:38:04;;;;;;;8.93;5.87;;;6.20;99.90;;;;;;5000952;28;20183;-56
2021/03/01 11:40:29;;;;;;;12.57;6.93;;;6.20;99.90;;;;;;4996292;28;20196;-52
2021/03/01 11:42:56;;;;;;;14.97;7.33;;;6.30;99.90;;;;;;4985191;28;20278;-58
2021/03/01 11:45:22;;;;;;;17.00;6.83;;;6.30;99.90;;;;;;4988655;28;20213;-54
2021/03/01 11:47:47;;;;;;;13.60;7.20;;;6.40;99.90;;;;;;4992129;28;20267;-49
2021/03/01 11:50:13;;;;;;;14.67;6.57;;;6.40;99.90;;;;;;4965876;28;20411;-49
2021/03/01 11:52:39;;;;;;;13.10;7.70;;;6.40;99.90;;;;;;4991107;28;20208;-47
2021/03/01 11:55:05;;;;;;;11.07;7.10;;;6.40;99.90;;;;;;4990649;28;20199;-56
2021/03/01 11:57:30;;;;;;;14.33;7.27;;;6.40;99.90;;;;;;4987087;28;20413;-52
2021/03/01 11:59:56;;;;;;;13.13;6.80;;;6.40;99.90;;;;;;4990375;28;20256;-56
2021/03/01 12:02:21;;;;;;;11.63;6.20;;;6.40;99.90;;;;;;4991129;28;20315;-47
2021/03/01 12:04:47;;;;;;;10.23;6.90;;;6.50;99.90;;;;;;4997698;28;20753;-51
2021/03/01 12:07:13;;;;;;;11.00;6.33;;;6.50;99.90;;;;;;4979976;28;20671;-50
2021/03/01 12:09:38;;;;;;;13.13;6.40;;;6.50;99.90;;;;;;4994313;28;20180;-50
2021/03/01 12:12:04;;;;;;;14.10;6.53;;;6.60;99.90;;;;;;4986513;28;20265;-56
2021/03/01 12:14:30;;;;;;;10.87;6.83;;;6.60;99.90;;;;;;4997590;28;20292;-50
2021/03/01 12:16:55;;;;;;;12.97;6.07;;;6.70;99.90;;;;;;4988133;28;20280;-55
2021/03/01 12:19:21;;;;;;;12.40;6.10;;;6.80;99.90;;;;;;4994444;28;20203;-56
2021/03/01 12:21:47;;;;;;;7.53;5.43;;;6.80;99.90;;;;;;4984880;28;20193;-57
2021/03/01 12:24:14;;;;;;;10.33;6.10;;;6.90;99.90;;;;;;4990747;28;20295;-51
2021/03/01 12:26:40;;;;;;;14.40;6.30;;;7.00;99.90;;;;;;4991152;28;20196;-51
2021/03/01 12:29:06;;;;;;;8.57;5.43;;;7.10;99.90;;;;;;4983755;28;20262;-53
2021/03/01 12:31:32;;;;;;;9.20;5.57;;;7.20;99.90;;;;;;4985474;28;20204;-50
2021/03/01 12:33:57;;;;;;;12.63;6.23;;;7.20;99.90;;;;;;4993848;28;20309;-48
2021/03/01 12:36:23;;;;;;;13.53;6.60;;;7.20;99.90;;;;;;4979704;28;20361;-49
2021/03/01 12:38:48;;;;;;;10.83;6.33;;;7.10;99.90;;;;;;4985551;28;20657;-48
2021/03/01 12:41:14;;;;;;;11.40;5.90;;;7.20;99.90;;;;;;4997221;28;20280;-49
2021/03/01 12:43:40;;;;;;;10.87;6.20;;;7.20;99.90;;;;;;4996433;28;20322;-48
2021/03/01 12:46:05;;;;;;;10.90;6.47;;;7.20;99.90;;;;;;4996590;28;20213;-48
2021/03/01 12:48:31;;;;;;;11.97;6.27;;;7.40;99.90;;;;;;4999503;28;20745;-47
2021/03/01 12:50:56;;;;;;;10.23;6.43;;;7.50;99.90;;;;;;4982696;28;20190;-50
2021/03/01 12:53:22;;;;;;;9.53;5.70;;;7.50;99.90;;;;;;4992280;28;20327;-47